createdAt,value
2022-11-25T00:05:13.750Z,6.76
2022-11-25T00:10:45.431Z,6.77
2022-11-25T00:16:16.909Z,6.72
2022-11-25T00:21:48.849Z,6.66
2022-11-25T00:27:25.695Z,6.6
2022-11-25T00:32:56.438Z,6.45
2022-11-25T00:38:28.428Z,6.53
2022-11-25T00:43:59.968Z,6.52
2022-11-25T00:49:31.720Z,6.52
2022-11-25T00:55:03.645Z,6.57
2022-11-25T01:00:35.106Z,6.56
2022-11-25T01:06:06.827Z,6.57
2022-11-25T01:11:38.923Z,6.59
2022-11-25T01:17:10.502Z,6.61
2022-11-25T01:22:42.338Z,6.55
2022-11-25T01:28:20.670Z,6.64
2022-11-25T01:33:52.019Z,6.42
2022-11-25T01:39:26.971Z,6.45
2022-11-25T01:44:55.236Z,6.53
2022-11-25T01:50:26.976Z,6.65
2022-11-25T01:55:59.113Z,6.72
2022-11-25T02:01:30.405Z,6.73
2022-11-25T02:07:02.223Z,6.82
2022-11-25T02:12:34.038Z,6.92
2022-11-25T02:18:05.534Z,6.97
2022-11-25T02:23:37.557Z,6.91
2022-11-25T02:29:15.666Z,6.81
2022-11-25T02:34:47.109Z,6.84
2022-11-25T02:40:19.417Z,6.78
2022-11-25T02:45:50.567Z,6.83
2022-11-25T02:51:22.258Z,6.89
2022-11-25T02:56:53.954Z,6.92
2022-11-25T03:02:26.016Z,6.87
2022-11-25T03:07:57.644Z,6.72
2022-11-25T03:13:29.125Z,6.69
2022-11-25T03:19:01.502Z,6.65
2022-11-25T03:24:32.958Z,6.67
2022-11-25T03:30:09.950Z,6.69
2022-11-25T03:35:40.762Z,6.67
2022-11-25T03:41:12.618Z,6.5
2022-11-25T03:46:43.904Z,6.32
2022-11-25T03:52:15.609Z,6.16
2022-11-25T03:57:47.636Z,6.27
2022-11-25T04:03:19.039Z,6.22
2022-11-25T04:08:51.003Z,6.17
2022-11-25T04:14:22.486Z,6.25
2022-11-25T04:19:54.214Z,6.4
2022-11-25T04:25:26.317Z,6.17
2022-11-25T04:31:02.282Z,6.34
2022-11-25T04:36:33.700Z,6.26
2022-11-25T04:42:05.724Z,6.31
2022-11-25T04:47:37.443Z,6.31
2022-11-25T04:53:09.121Z,6.34
2022-11-25T04:58:41.037Z,6.34
2022-11-25T05:04:12.329Z,6.3
2022-11-25T05:09:44.416Z,6.48
2022-11-25T05:15:15.764Z,6.41
2022-11-25T05:20:47.482Z,6.07
2022-11-25T05:26:19.470Z,6.22
2022-11-25T05:31:55.303Z,6.16
2022-11-25T05:37:27.054Z,6.23
2022-11-25T05:42:59.022Z,6.33
2022-11-25T05:48:30.483Z,6.55
2022-11-25T05:54:02.214Z,6.62
2022-11-25T05:59:34.242Z,6.47
2022-11-25T06:05:06.194Z,6.43
2022-11-25T06:10:37.743Z,6.39
2022-11-25T06:16:09.328Z,6.38
2022-11-25T06:21:40.783Z,6.34
2022-11-25T06:27:12.803Z,6.26
2022-11-25T06:32:51.111Z,6.16
2022-11-25T06:38:22.718Z,6.19
2022-11-25T06:43:54.094Z,6.09
2022-11-25T06:49:25.970Z,5.99
2022-11-25T06:54:57.727Z,6.08
2022-11-25T07:00:29.680Z,6.09
2022-11-25T07:06:00.903Z,6.24
2022-11-25T07:11:32.899Z,6.13
2022-11-25T07:17:08.881Z,6.14
2022-11-25T07:22:36.343Z,6.24
2022-11-25T07:28:08.074Z,6.38
2022-11-25T07:33:45.957Z,6.41
2022-11-25T07:39:17.844Z,6.62
2022-11-25T07:44:49.546Z,6.95
2022-11-25T07:50:21.091Z,7.02
2022-11-25T07:55:53.196Z,6.95
2022-11-25T08:01:24.563Z,6.9
2022-11-25T08:06:56.542Z,7.04
2022-11-25T08:12:28.198Z,7.12
2022-11-25T08:18:00.037Z,6.92
2022-11-25T08:23:31.851Z,7.29
2022-11-25T08:29:03.231Z,7.61
2022-11-25T08:34:40.156Z,7.87
2022-11-25T08:40:11.365Z,8.0
2022-11-25T08:45:42.819Z,8.27
2022-11-25T08:51:14.779Z,8.16
2022-11-25T08:56:46.210Z,8.01
2022-11-25T09:02:17.993Z,8.12
2022-11-25T09:07:49.703Z,8.43
2022-11-25T09:13:21.371Z,8.54
2022-11-25T09:18:55.968Z,8.59
2022-11-25T09:24:24.972Z,8.86
2022-11-25T09:29:56.538Z,9.04
2022-11-25T09:35:33.469Z,9.11
2022-11-25T09:41:04.577Z,9.26
2022-11-25T09:46:36.389Z,9.4
2022-11-25T09:52:07.954Z,9.34
2022-11-25T09:57:39.560Z,9.36
2022-11-25T10:03:11.315Z,9.72
2022-11-25T10:08:43.774Z,9.82
2022-11-25T10:14:14.966Z,9.85
2022-11-25T10:19:46.437Z,10.05
2022-11-25T10:25:18.339Z,9.94
2022-11-25T10:30:49.943Z,10.29
2022-11-25T10:36:26.235Z,10.14
2022-11-25T10:41:57.947Z,10.06
2022-11-25T10:47:29.460Z,10.14
2022-11-25T10:53:01.158Z,10.16
2022-11-25T10:58:33.203Z,10.1
2022-11-25T11:04:05.035Z,10.36
2022-11-25T11:09:36.334Z,10.51
2022-11-25T11:15:08.295Z,10.2
2022-11-25T11:20:39.750Z,9.89
2022-11-25T11:26:11.498Z,9.63
2022-11-25T11:31:43.353Z,9.79
2022-11-25T11:37:21.623Z,9.93
2022-11-25T11:42:53.309Z,9.3
2022-11-25T11:48:25.009Z,9.37
2022-11-25T11:53:57.383Z,9.52
2022-11-25T11:59:28.250Z,9.51
2022-11-25T12:04:59.962Z,9.86
2022-11-25T12:10:31.699Z,10.08
2022-11-25T12:16:03.916Z,10.12
2022-11-25T12:21:40.315Z,10.04
2022-11-25T12:27:06.855Z,9.92
2022-11-25T12:32:39.070Z,9.7
2022-11-25T12:38:16.696Z,10.0
2022-11-25T12:43:48.440Z,10.1
2022-11-25T12:49:20.175Z,9.99
2022-11-25T12:54:52.207Z,9.96
2022-11-25T13:00:40.837Z,10.06
2022-11-25T13:05:55.339Z,9.94
2022-11-25T13:11:27.316Z,9.74
2022-11-25T13:16:59.451Z,9.69
2022-11-25T13:22:30.868Z,9.53
2022-11-25T13:28:02.248Z,9.79
2022-11-25T13:33:34.572Z,9.83
2022-11-25T13:39:10.087Z,9.73
2022-11-25T13:44:41.887Z,9.77
2022-11-25T13:50:16.403Z,9.73
2022-11-25T13:55:45.342Z,9.68
2022-11-25T14:01:17.880Z,9.62
2022-11-25T14:06:49.104Z,9.61
2022-11-25T14:12:20.859Z,9.69
2022-11-25T14:17:52.187Z,9.81
2022-11-25T14:23:23.943Z,9.87
2022-11-25T14:28:55.653Z,9.9
2022-11-25T14:34:27.760Z,9.8
2022-11-25T14:40:04.167Z,9.93
2022-11-25T14:45:35.545Z,10.05
2022-11-25T14:51:06.939Z,10.05
2022-11-25T14:56:38.672Z,10.13
2022-11-25T15:02:10.790Z,10.01
2022-11-25T15:07:42.182Z,9.97
2022-11-25T15:13:13.856Z,9.76
2022-11-25T15:18:45.528Z,10.1
2022-11-25T15:24:17.626Z,9.95
2022-11-25T15:29:49.057Z,10.08
2022-11-25T15:35:21.322Z,9.99
2022-11-25T15:40:56.887Z,9.9
2022-11-25T15:46:29.220Z,9.87
2022-11-25T15:52:00.303Z,10.11
2022-11-25T15:57:32.188Z,10.0
2022-11-25T16:03:03.773Z,10.01
2022-11-25T16:08:35.722Z,9.94
2022-11-25T16:14:07.262Z,9.86
2022-11-25T16:19:38.916Z,9.92
2022-11-25T16:25:10.932Z,10.09
2022-11-25T16:30:42.643Z,10.23
2022-11-25T16:36:14.158Z,10.21
2022-11-25T16:41:53.151Z,10.25
2022-11-25T16:47:23.999Z,10.28
2022-11-25T16:52:55.722Z,10.19
2022-11-25T16:58:27.405Z,10.14
2022-11-25T17:03:59.190Z,10.04
2022-11-25T17:09:30.899Z,10.0
2022-11-25T17:15:02.911Z,9.9
2022-11-25T17:20:34.596Z,9.88
2022-11-25T17:26:06.063Z,9.89
2022-11-25T17:31:37.884Z,9.82
2022-11-25T17:37:09.699Z,9.8
2022-11-25T17:42:45.650Z,9.83
2022-11-25T17:48:17.354Z,9.88
2022-11-25T17:53:49.336Z,9.93
2022-11-25T17:59:20.854Z,9.87
2022-11-25T18:04:52.535Z,9.82
2022-11-25T18:10:24.272Z,9.67
2022-11-25T18:15:55.967Z,9.49
2022-11-25T18:21:27.937Z,9.51
2022-11-25T18:26:59.418Z,9.65
2022-11-25T18:32:31.137Z,9.58
2022-11-25T18:38:02.838Z,9.39
2022-11-25T18:43:40.978Z,9.37
2022-11-25T18:49:12.843Z,9.41
2022-11-25T18:54:44.593Z,9.44
2022-11-25T19:00:31.466Z,9.45
2022-11-25T19:05:48.099Z,9.25
2022-11-25T19:11:19.737Z,9.31
2022-11-25T19:16:51.944Z,9.12
2022-11-25T19:22:23.002Z,8.82
2022-11-25T19:27:54.711Z,8.94
2022-11-25T19:33:26.368Z,9.16
2022-11-25T19:38:58.958Z,9.26
2022-11-25T19:44:34.337Z,8.99
2022-11-25T19:50:06.223Z,8.8
2022-11-25T19:55:37.672Z,8.82
2022-11-25T20:01:09.410Z,8.67
2022-11-25T20:06:41.362Z,8.58
2022-11-25T20:12:13.484Z,8.67
2022-11-25T20:17:45.049Z,8.76
2022-11-25T20:23:16.541Z,8.87
2022-11-25T20:28:48.313Z,8.93
2022-11-25T20:34:20.047Z,8.82
2022-11-25T20:39:51.519Z,8.83
2022-11-25T20:45:28.157Z,8.67
2022-11-25T20:50:59.355Z,8.71
2022-11-25T20:56:31.083Z,8.61
2022-11-25T21:02:03.114Z,8.58
2022-11-25T21:07:34.886Z,8.45
2022-11-25T21:13:06.212Z,8.57
2022-11-25T21:18:37.948Z,8.56
2022-11-25T21:24:09.720Z,8.45
2022-11-25T21:29:41.422Z,8.41
2022-11-25T21:35:13.614Z,8.56
2022-11-25T21:40:45.106Z,8.49
2022-11-25T21:46:20.924Z,8.32
2022-11-25T21:51:53.032Z,8.48
2022-11-25T21:57:25.053Z,8.62
2022-11-25T22:02:56.122Z,8.62
2022-11-25T22:08:27.784Z,8.62
2022-11-25T22:13:59.498Z,8.5
2022-11-25T22:19:31.542Z,8.45
2022-11-25T22:25:03.004Z,8.61
2022-11-25T22:30:34.981Z,8.73
2022-11-25T22:36:06.633Z,8.83
2022-11-25T22:41:38.489Z,8.8
2022-11-25T22:47:14.261Z,8.79
2022-11-25T22:52:46.615Z,8.81
2022-11-25T22:58:17.941Z,8.91
2022-11-25T23:03:49.470Z,8.91
2022-11-25T23:09:21.167Z,8.94
2022-11-25T23:14:53.078Z,9.0
2022-11-25T23:20:25.044Z,8.93
2022-11-25T23:25:56.366Z,8.95
2022-11-25T23:31:28.102Z,8.88
2022-11-25T23:36:59.782Z,8.87
2022-11-25T23:42:31.774Z,8.85
2022-11-25T23:48:07.983Z,8.8
2022-11-25T23:53:39.360Z,8.66
2022-11-25T23:59:11.282Z,8.61
